If you wish to contribute or participate in the discussions about articles you are invited to join SKYbrary as a registered user

 Actions

Lombok/Zainuddin Abdul Madjid International Airport

From SKYbrary Wiki

WADL
Airport
ICAO: WADL – IATA: LOP
Summary
Name Lombok/Zainuddin Abdul Madjid International Airport
Region Asia and Pacific
Territory Indonesia ID.gif
Location Central Lombok, West Nusa Tenggara
Serving Mataram
Elevation 97.231 m
319 ft
319 ft97.231 m
Coordinates 8° 45' 29.00" S, 116° 16' 35.00" E
Runways
Designator Length Width Surface ROPS
13/31 2743 m8,999.344 ft
0 m0 ft
Asphalt yes/yes


METAR
Observation WADL 191430Z 12007KT 7000 SCT016 25/22 Q1014 NOSIG
Station Lombok International Airport
Date/Time 19 September 2019 14:30:00
Wind direction 120°
Wind speed 07 kts
Lowest cloud amount scattered clouds
Temperature 25°C
Dew point 22°C
Humidity 83%
QNH 1014 hPa
Weather condition n/a

International airport serving Lombok.

Climatology

Tropical Savanna climate (Köppen climate classification Aw) - monthly mean temperature above 18°C64.4 °F
291.15 K
524.07 °R
in every month of the year and a pronounced dry season.

Maps

Terrain

Loading map...

Airport Layout

Loading map...


Accidents & Serious Incidents at or in vicinity of WADL

None on SKYbrary